sensor_id;sensor_type;location;lat;lon;timestamp;P1;durP1;ratioP1;P2;durP2;ratioP2
10957;SDS011;5531;42.570;23.676;2022-11-20T00:01:46;10.65;;;9.52;;
10957;SDS011;5531;42.570;23.676;2022-11-20T00:04:15;13.25;;;10.80;;
10957;SDS011;5531;42.570;23.676;2022-11-20T00:06:44;12.20;;;10.70;;
10957;SDS011;5531;42.570;23.676;2022-11-20T00:09:14;13.15;;;10.52;;
10957;SDS011;5531;42.570;23.676;2022-11-20T00:11:43;15.32;;;11.50;;
10957;SDS011;5531;42.570;23.676;2022-11-20T00:14:15;13.60;;;10.57;;
10957;SDS011;5531;42.570;23.676;2022-11-20T00:16:44;15.18;;;11.68;;
10957;SDS011;5531;42.570;23.676;2022-11-20T00:19:13;13.32;;;11.43;;
10957;SDS011;5531;42.570;23.676;2022-11-20T00:21:42;14.32;;;11.45;;
10957;SDS011;5531;42.570;23.676;2022-11-20T00:24:11;14.90;;;10.85;;
10957;SDS011;5531;42.570;23.676;2022-11-20T00:26:40;14.80;;;11.18;;
10957;SDS011;5531;42.570;23.676;2022-11-20T00:29:09;15.90;;;11.35;;
10957;SDS011;5531;42.570;23.676;2022-11-20T00:31:41;14.60;;;11.15;;
10957;SDS011;5531;42.570;23.676;2022-11-20T00:34:10;15.93;;;11.73;;
10957;SDS011;5531;42.570;23.676;2022-11-20T00:36:39;14.13;;;11.43;;
10957;SDS011;5531;42.570;23.676;2022-11-20T00:39:07;15.52;;;12.20;;
10957;SDS011;5531;42.570;23.676;2022-11-20T00:41:37;15.93;;;12.73;;
10957;SDS011;5531;42.570;23.676;2022-11-20T00:44:06;15.43;;;12.75;;
10957;SDS011;5531;42.570;23.676;2022-11-20T00:46:34;15.60;;;13.52;;
10957;SDS011;5531;42.570;23.676;2022-11-20T00:49:06;19.05;;;15.15;;
10957;SDS011;5531;42.570;23.676;2022-11-20T00:51:35;19.20;;;15.32;;
10957;SDS011;5531;42.570;23.676;2022-11-20T00:54:04;18.40;;;16.00;;
10957;SDS011;5531;42.570;23.676;2022-11-20T00:56:33;18.85;;;16.17;;
10957;SDS011;5531;42.570;23.676;2022-11-20T00:59:02;19.05;;;15.50;;
10957;SDS011;5531;42.570;23.676;2022-11-20T01:01:31;20.90;;;16.13;;
10957;SDS011;5531;42.570;23.676;2022-11-20T01:04:00;18.67;;;14.77;;
10957;SDS011;5531;42.570;23.676;2022-11-20T01:06:32;16.92;;;14.68;;
10957;SDS011;5531;42.570;23.676;2022-11-20T01:09:04;15.88;;;13.90;;
10957;SDS011;5531;42.570;23.676;2022-11-20T01:11:39;17.67;;;13.48;;
10957;SDS011;5531;42.570;23.676;2022-11-20T01:14:10;16.80;;;12.40;;
10957;SDS011;5531;42.570;23.676;2022-11-20T01:16:42;15.38;;;11.90;;
10957;SDS011;5531;42.570;23.676;2022-11-20T01:19:13;13.93;;;11.40;;
10957;SDS011;5531;42.570;23.676;2022-11-20T01:21:48;13.18;;;10.73;;
10957;SDS011;5531;42.570;23.676;2022-11-20T01:24:19;12.57;;;11.13;;
10957;SDS011;5531;42.570;23.676;2022-11-20T01:26:49;13.38;;;11.43;;
10957;SDS011;5531;42.570;23.676;2022-11-20T01:29:21;14.00;;;10.88;;
10957;SDS011;5531;42.570;23.676;2022-11-20T01:31:52;11.50;;;10.30;;
10957;SDS011;5531;42.570;23.676;2022-11-20T01:34:21;11.13;;;10.13;;
10957;SDS011;5531;42.570;23.676;2022-11-20T01:36:53;14.95;;;10.80;;
10957;SDS011;5531;42.570;23.676;2022-11-20T01:39:23;11.38;;;10.18;;
10957;SDS011;5531;42.570;23.676;2022-11-20T01:41:54;13.20;;;11.20;;
10957;SDS011;5531;42.570;23.676;2022-11-20T01:44:45;11.98;;;10.07;;
10957;SDS011;5531;42.570;23.676;2022-11-20T01:47:21;12.13;;;10.27;;
10957;SDS011;5531;42.570;23.676;2022-11-20T01:49:56;11.52;;;9.40;;
10957;SDS011;5531;42.570;23.676;2022-11-20T01:52:32;9.50;;;8.45;;
10957;SDS011;5531;42.570;23.676;2022-11-20T01:55:05;9.40;;;8.32;;
10957;SDS011;5531;42.570;23.676;2022-11-20T01:57:37;12.85;;;8.38;;
10957;SDS011;5531;42.570;23.676;2022-11-20T02:00:09;13.00;;;9.82;;
10957;SDS011;5531;42.570;23.676;2022-11-20T02:02:40;12.40;;;9.30;;
10957;SDS011;5531;42.570;23.676;2022-11-20T02:05:14;12.43;;;9.45;;
10957;SDS011;5531;42.570;23.676;2022-11-20T02:07:53;10.48;;;9.30;;
10957;SDS011;5531;42.570;23.676;2022-11-20T02:10:25;10.90;;;8.98;;
10957;SDS011;5531;42.570;23.676;2022-11-20T02:12:57;10.95;;;8.88;;
10957;SDS011;5531;42.570;23.676;2022-11-20T02:15:38;10.77;;;9.23;;
10957;SDS011;5531;42.570;23.676;2022-11-20T02:18:08;10.82;;;8.95;;
10957;SDS011;5531;42.570;23.676;2022-11-20T02:20:38;12.50;;;9.70;;
10957;SDS011;5531;42.570;23.676;2022-11-20T02:23:13;10.35;;;9.35;;
10957;SDS011;5531;42.570;23.676;2022-11-20T02:25:51;9.68;;;8.68;;
10957;SDS011;5531;42.570;23.676;2022-11-20T02:28:23;12.05;;;8.15;;
10957;SDS011;5531;42.570;23.676;2022-11-20T02:30:52;9.00;;;7.47;;
10957;SDS011;5531;42.570;23.676;2022-11-20T02:33:21;8.05;;;7.22;;
10957;SDS011;5531;42.570;23.676;2022-11-20T02:35:51;11.60;;;7.50;;
10957;SDS011;5531;42.570;23.676;2022-11-20T02:38:20;8.00;;;6.70;;
10957;SDS011;5531;42.570;23.676;2022-11-20T02:40:52;7.90;;;6.00;;
10957;SDS011;5531;42.570;23.676;2022-11-20T02:43:21;7.45;;;5.45;;
10957;SDS011;5531;42.570;23.676;2022-11-20T02:45:50;7.03;;;5.50;;
10957;SDS011;5531;42.570;23.676;2022-11-20T02:48:19;7.00;;;4.90;;
10957;SDS011;5531;42.570;23.676;2022-11-20T02:50:48;6.13;;;4.43;;
10957;SDS011;5531;42.570;23.676;2022-11-20T02:53:17;5.22;;;4.55;;
10957;SDS011;5531;42.570;23.676;2022-11-20T02:55:46;5.65;;;3.72;;
10957;SDS011;5531;42.570;23.676;2022-11-20T02:58:17;5.03;;;4.07;;
10957;SDS011;5531;42.570;23.676;2022-11-20T03:00:46;4.40;;;4.00;;
10957;SDS011;5531;42.570;23.676;2022-11-20T03:03:15;5.47;;;4.03;;
10957;SDS011;5531;42.570;23.676;2022-11-20T03:05:44;4.97;;;4.10;;
10957;SDS011;5531;42.570;23.676;2022-11-20T03:08:13;4.35;;;3.83;;
10957;SDS011;5531;42.570;23.676;2022-11-20T03:10:42;6.15;;;4.32;;
10957;SDS011;5531;42.570;23.676;2022-11-20T03:13:11;5.25;;;4.70;;
10957;SDS011;5531;42.570;23.676;2022-11-20T03:15:43;6.15;;;4.65;;
10957;SDS011;5531;42.570;23.676;2022-11-20T03:18:12;5.90;;;4.47;;
10957;SDS011;5531;42.570;23.676;2022-11-20T03:20:41;7.53;;;4.57;;
10957;SDS011;5531;42.570;23.676;2022-11-20T03:23:10;6.50;;;4.50;;
10957;SDS011;5531;42.570;23.676;2022-11-20T03:25:39;5.00;;;3.90;;
10957;SDS011;5531;42.570;23.676;2022-11-20T03:28:08;5.82;;;4.15;;
10957;SDS011;5531;42.570;23.676;2022-11-20T03:30:37;6.30;;;4.50;;
10957;SDS011;5531;42.570;23.676;2022-11-20T03:33:09;6.25;;;4.70;;
10957;SDS011;5531;42.570;23.676;2022-11-20T03:35:38;5.18;;;4.15;;
10957;SDS011;5531;42.570;23.676;2022-11-20T03:38:07;5.40;;;4.45;;
10957;SDS011;5531;42.570;23.676;2022-11-20T03:40:36;7.95;;;4.88;;
10957;SDS011;5531;42.570;23.676;2022-11-20T03:43:05;6.13;;;4.25;;
10957;SDS011;5531;42.570;23.676;2022-11-20T03:45:34;7.53;;;4.68;;
10957;SDS011;5531;42.570;23.676;2022-11-20T03:48:03;6.70;;;4.40;;
10957;SDS011;5531;42.570;23.676;2022-11-20T03:50:35;6.13;;;4.03;;
10957;SDS011;5531;42.570;23.676;2022-11-20T03:53:04;5.15;;;3.65;;
10957;SDS011;5531;42.570;23.676;2022-11-20T03:55:33;5.20;;;3.92;;
10957;SDS011;5531;42.570;23.676;2022-11-20T03:58:02;5.25;;;3.83;;
10957;SDS011;5531;42.570;23.676;2022-11-20T04:00:32;4.63;;;3.70;;
10957;SDS011;5531;42.570;23.676;2022-11-20T04:03:01;5.03;;;3.80;;
10957;SDS011;5531;42.570;23.676;2022-11-20T04:05:32;5.72;;;3.30;;
10957;SDS011;5531;42.570;23.676;2022-11-20T04:08:04;7.03;;;3.80;;
10957;SDS011;5531;42.570;23.676;2022-11-20T04:10:34;4.43;;;3.22;;
10957;SDS011;5531;42.570;23.676;2022-11-20T04:13:03;6.93;;;3.70;;
10957;SDS011;5531;42.570;23.676;2022-11-20T04:15:32;5.93;;;3.63;;
10957;SDS011;5531;42.570;23.676;2022-11-20T04:18:01;4.60;;;3.72;;
10957;SDS011;5531;42.570;23.676;2022-11-20T04:20:29;5.25;;;3.80;;
10957;SDS011;5531;42.570;23.676;2022-11-20T04:23:01;4.40;;;3.60;;
10957;SDS011;5531;42.570;23.676;2022-11-20T04:25:30;8.32;;;4.10;;
10957;SDS011;5531;42.570;23.676;2022-11-20T04:27:59;5.53;;;4.35;;
10957;SDS011;5531;42.570;23.676;2022-11-20T04:30:28;6.05;;;3.70;;
10957;SDS011;5531;42.570;23.676;2022-11-20T04:32:57;5.88;;;3.83;;
10957;SDS011;5531;42.570;23.676;2022-11-20T04:35:26;4.53;;;3.10;;
10957;SDS011;5531;42.570;23.676;2022-11-20T04:37:55;4.45;;;3.17;;
10957;SDS011;5531;42.570;23.676;2022-11-20T04:40:26;4.30;;;3.20;;
10957;SDS011;5531;42.570;23.676;2022-11-20T04:42:56;5.72;;;3.47;;
10957;SDS011;5531;42.570;23.676;2022-11-20T04:45:25;4.95;;;2.80;;
10957;SDS011;5531;42.570;23.676;2022-11-20T04:47:53;4.82;;;2.53;;
10957;SDS011;5531;42.570;23.676;2022-11-20T04:50:22;4.97;;;2.78;;
10957;SDS011;5531;42.570;23.676;2022-11-20T04:52:51;4.18;;;2.40;;
10957;SDS011;5531;42.570;23.676;2022-11-20T04:55:20;3.08;;;1.90;;
10957;SDS011;5531;42.570;23.676;2022-11-20T04:57:52;2.92;;;1.98;;
10957;SDS011;5531;42.570;23.676;2022-11-20T05:00:21;2.88;;;1.50;;
10957;SDS011;5531;42.570;23.676;2022-11-20T05:02:50;4.65;;;1.10;;
10957;SDS011;5531;42.570;23.676;2022-11-20T05:05:19;2.75;;;1.17;;
10957;SDS011;5531;42.570;23.676;2022-11-20T05:07:48;2.58;;;1.20;;
10957;SDS011;5531;42.570;23.676;2022-11-20T05:10:17;2.58;;;1.08;;
10957;SDS011;5531;42.570;23.676;2022-11-20T05:12:46;3.65;;;1.23;;
10957;SDS011;5531;42.570;23.676;2022-11-20T05:15:18;3.42;;;1.25;;
10957;SDS011;5531;42.570;23.676;2022-11-20T05:17:47;2.40;;;1.23;;
10957;SDS011;5531;42.570;23.676;2022-11-20T05:20:17;2.35;;;1.10;;
10957;SDS011;5531;42.570;23.676;2022-11-20T05:22:46;3.20;;;1.25;;
10957;SDS011;5531;42.570;23.676;2022-11-20T05:25:15;3.22;;;1.55;;
10957;SDS011;5531;42.570;23.676;2022-11-20T05:27:45;3.97;;;3.17;;
10957;SDS011;5531;42.570;23.676;2022-11-20T05:30:14;4.55;;;3.38;;
10957;SDS011;5531;42.570;23.676;2022-11-20T05:32:46;4.70;;;3.42;;
10957;SDS011;5531;42.570;23.676;2022-11-20T05:35:15;4.63;;;3.47;;
10957;SDS011;5531;42.570;23.676;2022-11-20T05:37:44;5.05;;;3.95;;
10957;SDS011;5531;42.570;23.676;2022-11-20T05:40:13;6.70;;;4.32;;
10957;SDS011;5531;42.570;23.676;2022-11-20T05:42:42;5.65;;;4.05;;
10957;SDS011;5531;42.570;23.676;2022-11-20T05:45:11;4.00;;;3.20;;
10957;SDS011;5531;42.570;23.676;2022-11-20T05:47:40;5.80;;;3.15;;
10957;SDS011;5531;42.570;23.676;2022-11-20T05:52:43;4.20;;;2.50;;
10957;SDS011;5531;42.570;23.676;2022-11-20T05:55:12;4.30;;;2.42;;
10957;SDS011;5531;42.570;23.676;2022-11-20T05:57:41;3.60;;;2.67;;
10957;SDS011;5531;42.570;23.676;2022-11-20T06:00:11;4.47;;;2.58;;
10957;SDS011;5531;42.570;23.676;2022-11-20T06:02:41;4.43;;;2.60;;
10957;SDS011;5531;42.570;23.676;2022-11-20T06:05:10;3.10;;;2.33;;
10957;SDS011;5531;42.570;23.676;2022-11-20T06:07:41;3.80;;;2.40;;
10957;SDS011;5531;42.570;23.676;2022-11-20T06:10:10;6.57;;;3.45;;
10957;SDS011;5531;42.570;23.676;2022-11-20T06:12:39;5.20;;;4.32;;
10957;SDS011;5531;42.570;23.676;2022-11-20T06:15:09;7.47;;;5.93;;
10957;SDS011;5531;42.570;23.676;2022-11-20T06:17:38;6.45;;;5.03;;
10957;SDS011;5531;42.570;23.676;2022-11-20T06:20:08;4.95;;;4.35;;
10957;SDS011;5531;42.570;23.676;2022-11-20T06:22:38;6.68;;;5.55;;
10957;SDS011;5531;42.570;23.676;2022-11-20T06:25:09;6.32;;;5.72;;
10957;SDS011;5531;42.570;23.676;2022-11-20T06:27:38;7.30;;;5.90;;
10957;SDS011;5531;42.570;23.676;2022-11-20T06:30:08;7.63;;;6.30;;
10957;SDS011;5531;42.570;23.676;2022-11-20T06:32:38;8.27;;;6.82;;
10957;SDS011;5531;42.570;23.676;2022-11-20T06:35:07;8.15;;;7.35;;
10957;SDS011;5531;42.570;23.676;2022-11-20T06:37:37;11.45;;;8.05;;
10957;SDS011;5531;42.570;23.676;2022-11-20T06:40:09;9.93;;;8.88;;
10957;SDS011;5531;42.570;23.676;2022-11-20T06:42:39;11.13;;;9.82;;
10957;SDS011;5531;42.570;23.676;2022-11-20T06:45:08;10.10;;;7.07;;
10957;SDS011;5531;42.570;23.676;2022-11-20T06:47:38;7.32;;;6.60;;
10957;SDS011;5531;42.570;23.676;2022-11-20T06:50:07;7.97;;;6.15;;
10957;SDS011;5531;42.570;23.676;2022-11-20T06:52:36;7.40;;;6.13;;
10957;SDS011;5531;42.570;23.676;2022-11-20T06:55:06;8.10;;;5.72;;
10957;SDS011;5531;42.570;23.676;2022-11-20T06:57:38;8.38;;;5.50;;
10957;SDS011;5531;42.570;23.676;2022-11-20T07:00:07;9.05;;;5.10;;
10957;SDS011;5531;42.570;23.676;2022-11-20T07:02:37;7.13;;;5.20;;
10957;SDS011;5531;42.570;23.676;2022-11-20T07:05:06;6.65;;;3.92;;
10957;SDS011;5531;42.570;23.676;2022-11-20T07:07:35;5.22;;;3.90;;
10957;SDS011;5531;42.570;23.676;2022-11-20T07:10:05;6.35;;;3.88;;
10957;SDS011;5531;42.570;23.676;2022-11-20T07:12:37;6.28;;;3.75;;
10957;SDS011;5531;42.570;23.676;2022-11-20T07:15:06;7.88;;;3.72;;
10957;SDS011;5531;42.570;23.676;2022-11-20T07:17:36;6.70;;;3.42;;
10957;SDS011;5531;42.570;23.676;2022-11-20T07:20:05;4.40;;;2.80;;
10957;SDS011;5531;42.570;23.676;2022-11-20T07:22:35;4.82;;;2.83;;
10957;SDS011;5531;42.570;23.676;2022-11-20T07:25:04;4.50;;;3.53;;
10957;SDS011;5531;42.570;23.676;2022-11-20T07:27:34;3.72;;;2.45;;
10957;SDS011;5531;42.570;23.676;2022-11-20T07:30:06;6.10;;;3.65;;
10957;SDS011;5531;42.570;23.676;2022-11-20T07:32:35;5.38;;;3.47;;
10957;SDS011;5531;42.570;23.676;2022-11-20T07:35:05;6.13;;;3.22;;
10957;SDS011;5531;42.570;23.676;2022-11-20T07:37:34;4.40;;;3.67;;
10957;SDS011;5531;42.570;23.676;2022-11-20T07:40:04;6.70;;;4.10;;
10957;SDS011;5531;42.570;23.676;2022-11-20T07:42:33;5.35;;;4.07;;
10957;SDS011;5531;42.570;23.676;2022-11-20T07:45:06;7.93;;;4.72;;
10957;SDS011;5531;42.570;23.676;2022-11-20T07:47:36;6.88;;;4.35;;
10957;SDS011;5531;42.570;23.676;2022-11-20T07:50:05;8.50;;;5.25;;
10957;SDS011;5531;42.570;23.676;2022-11-20T07:52:35;5.47;;;4.60;;
10957;SDS011;5531;42.570;23.676;2022-11-20T07:55:05;6.57;;;4.05;;
10957;SDS011;5531;42.570;23.676;2022-11-20T07:57:38;8.20;;;3.80;;
10957;SDS011;5531;42.570;23.676;2022-11-20T08:00:08;4.13;;;3.17;;
10957;SDS011;5531;42.570;23.676;2022-11-20T08:02:39;4.00;;;2.50;;
10957;SDS011;5531;42.570;23.676;2022-11-20T08:05:09;5.55;;;3.00;;
10957;SDS011;5531;42.570;23.676;2022-11-20T08:07:39;5.72;;;2.70;;
10957;SDS011;5531;42.570;23.676;2022-11-20T08:10:10;5.32;;;2.38;;
10957;SDS011;5531;42.570;23.676;2022-11-20T08:12:46;4.68;;;2.47;;
10957;SDS011;5531;42.570;23.676;2022-11-20T08:15:28;2.83;;;2.33;;
10957;SDS011;5531;42.570;23.676;2022-11-20T08:18:01;5.00;;;2.47;;
10957;SDS011;5531;42.570;23.676;2022-11-20T08:20:31;3.67;;;2.85;;
10957;SDS011;5531;42.570;23.676;2022-11-20T08:23:01;5.72;;;3.03;;
10957;SDS011;5531;42.570;23.676;2022-11-20T08:25:35;3.53;;;2.80;;
10957;SDS011;5531;42.570;23.676;2022-11-20T08:28:08;3.78;;;2.80;;
10957;SDS011;5531;42.570;23.676;2022-11-20T08:30:41;4.63;;;3.20;;
10957;SDS011;5531;42.570;23.676;2022-11-20T08:33:11;4.32;;;3.58;;
10957;SDS011;5531;42.570;23.676;2022-11-20T08:35:40;7.43;;;3.03;;
10957;SDS011;5531;42.570;23.676;2022-11-20T08:38:09;6.25;;;3.15;;
10957;SDS011;5531;42.570;23.676;2022-11-20T08:40:39;4.68;;;3.40;;
10957;SDS011;5531;42.570;23.676;2022-11-20T08:43:30;5.32;;;3.30;;
10957;SDS011;5531;42.570;23.676;2022-11-20T08:46:00;4.72;;;3.42;;
10957;SDS011;5531;42.570;23.676;2022-11-20T08:48:29;6.97;;;3.85;;
10957;SDS011;5531;42.570;23.676;2022-11-20T08:50:58;3.53;;;3.00;;
10957;SDS011;5531;42.570;23.676;2022-11-20T08:53:27;3.97;;;2.85;;
10957;SDS011;5531;42.570;23.676;2022-11-20T08:55:56;2.97;;;2.53;;
10957;SDS011;5531;42.570;23.676;2022-11-20T08:58:26;3.67;;;3.10;;
10957;SDS011;5531;42.570;23.676;2022-11-20T09:00:57;4.72;;;2.78;;
10957;SDS011;5531;42.570;23.676;2022-11-20T09:03:26;7.10;;;2.70;;
10957;SDS011;5531;42.570;23.676;2022-11-20T09:05:56;5.13;;;3.08;;
10957;SDS011;5531;42.570;23.676;2022-11-20T09:08:27;4.53;;;2.72;;
10957;SDS011;5531;42.570;23.676;2022-11-20T09:10:56;4.00;;;2.67;;
10957;SDS011;5531;42.570;23.676;2022-11-20T09:13:29;3.88;;;2.88;;
10957;SDS011;5531;42.570;23.676;2022-11-20T09:16:02;4.95;;;2.95;;
10957;SDS011;5531;42.570;23.676;2022-11-20T09:18:33;3.80;;;2.70;;
10957;SDS011;5531;42.570;23.676;2022-11-20T09:21:04;4.28;;;2.42;;
10957;SDS011;5531;42.570;23.676;2022-11-20T09:23:36;3.83;;;2.60;;
10957;SDS011;5531;42.570;23.676;2022-11-20T09:26:06;5.00;;;2.80;;
10957;SDS011;5531;42.570;23.676;2022-11-20T09:28:37;4.07;;;2.50;;
10957;SDS011;5531;42.570;23.676;2022-11-20T09:31:13;4.07;;;2.60;;
10957;SDS011;5531;42.570;23.676;2022-11-20T09:33:49;3.67;;;2.60;;
10957;SDS011;5531;42.570;23.676;2022-11-20T09:36:20;4.63;;;2.60;;
10957;SDS011;5531;42.570;23.676;2022-11-20T09:38:49;3.45;;;2.20;;
10957;SDS011;5531;42.570;23.676;2022-11-20T09:47:25;7.75;;;7.05;;
10957;SDS011;5531;42.570;23.676;2022-11-20T09:50:10;6.30;;;2.90;;
10957;SDS011;5531;42.570;23.676;2022-11-20T09:52:54;5.72;;;4.10;;
10957;SDS011;5531;42.570;23.676;2022-11-20T09:55:33;4.80;;;2.85;;
10957;SDS011;5531;42.570;23.676;2022-11-20T09:58:05;4.75;;;2.25;;
10957;SDS011;5531;42.570;23.676;2022-11-20T10:00:35;2.90;;;2.22;;
10957;SDS011;5531;42.570;23.676;2022-11-20T10:03:11;4.65;;;3.28;;
10957;SDS011;5531;42.570;23.676;2022-11-20T10:05:43;4.72;;;2.47;;
10957;SDS011;5531;42.570;23.676;2022-11-20T10:08:16;6.00;;;2.10;;
10957;SDS011;5531;42.570;23.676;2022-11-20T10:10:49;3.70;;;2.20;;
10957;SDS011;5531;42.570;23.676;2022-11-20T10:13:27;4.95;;;2.20;;
10957;SDS011;5531;42.570;23.676;2022-11-20T10:16:10;3.88;;;2.22;;
10957;SDS011;5531;42.570;23.676;2022-11-20T10:18:54;3.03;;;2.00;;
10957;SDS011;5531;42.570;23.676;2022-11-20T10:21:35;4.30;;;2.30;;
10957;SDS011;5531;42.570;23.676;2022-11-20T10:24:29;3.05;;;2.10;;
10957;SDS011;5531;42.570;23.676;2022-11-20T10:27:15;4.20;;;2.00;;
10957;SDS011;5531;42.570;23.676;2022-11-20T10:30:08;5.18;;;2.40;;
10957;SDS011;5531;42.570;23.676;2022-11-20T10:32:40;6.60;;;2.70;;
10957;SDS011;5531;42.570;23.676;2022-11-20T10:35:18;4.45;;;2.50;;
10957;SDS011;5531;42.570;23.676;2022-11-20T10:37:51;5.25;;;2.85;;
10957;SDS011;5531;42.570;23.676;2022-11-20T10:40:26;3.88;;;2.50;;
10957;SDS011;5531;42.570;23.676;2022-11-20T10:43:01;5.75;;;2.60;;
10957;SDS011;5531;42.570;23.676;2022-11-20T10:45:36;4.63;;;2.80;;
10957;SDS011;5531;42.570;23.676;2022-11-20T10:48:14;4.35;;;2.22;;
10957;SDS011;5531;42.570;23.676;2022-11-20T10:50:52;3.33;;;2.00;;
10957;SDS011;5531;42.570;23.676;2022-11-20T10:53:33;4.20;;;2.50;;
10957;SDS011;5531;42.570;23.676;2022-11-20T10:56:19;4.05;;;2.65;;
10957;SDS011;5531;42.570;23.676;2022-11-20T10:58:54;3.97;;;2.33;;
10957;SDS011;5531;42.570;23.676;2022-11-20T11:02:00;3.95;;;2.20;;
10957;SDS011;5531;42.570;23.676;2022-11-20T11:04:33;3.60;;;2.25;;
10957;SDS011;5531;42.570;23.676;2022-11-20T11:07:10;3.88;;;2.42;;
10957;SDS011;5531;42.570;23.676;2022-11-20T11:09:44;3.63;;;2.03;;
10957;SDS011;5531;42.570;23.676;2022-11-20T11:12:16;4.00;;;2.33;;
10957;SDS011;5531;42.570;23.676;2022-11-20T11:14:46;3.92;;;2.25;;
10957;SDS011;5531;42.570;23.676;2022-11-20T11:17:21;5.50;;;2.45;;
10957;SDS011;5531;42.570;23.676;2022-11-20T11:20:00;3.05;;;2.25;;
10957;SDS011;5531;42.570;23.676;2022-11-20T11:22:43;3.88;;;2.30;;
10957;SDS011;5531;42.570;23.676;2022-11-20T11:25:21;4.97;;;2.65;;
10957;SDS011;5531;42.570;23.676;2022-11-20T11:27:52;5.20;;;2.42;;
10957;SDS011;5531;42.570;23.676;2022-11-20T11:30:23;3.97;;;2.20;;
10957;SDS011;5531;42.570;23.676;2022-11-20T11:33:04;5.80;;;2.17;;
10957;SDS011;5531;42.570;23.676;2022-11-20T11:35:38;4.57;;;2.58;;
10957;SDS011;5531;42.570;23.676;2022-11-20T11:38:16;5.00;;;2.65;;
10957;SDS011;5531;42.570;23.676;2022-11-20T11:40:48;4.53;;;2.28;;
10957;SDS011;5531;42.570;23.676;2022-11-20T11:43:19;4.13;;;2.40;;
10957;SDS011;5531;42.570;23.676;2022-11-20T11:46:02;5.03;;;2.20;;
10957;SDS011;5531;42.570;23.676;2022-11-20T11:48:37;4.22;;;2.42;;
10957;SDS011;5531;42.570;23.676;2022-11-20T11:51:07;4.15;;;2.40;;
10957;SDS011;5531;42.570;23.676;2022-11-20T11:53:40;3.97;;;2.30;;
10957;SDS011;5531;42.570;23.676;2022-11-20T11:56:10;3.13;;;2.22;;
10957;SDS011;5531;42.570;23.676;2022-11-20T11:58:43;4.75;;;2.40;;
10957;SDS011;5531;42.570;23.676;2022-11-20T12:01:20;4.82;;;2.60;;
10957;SDS011;5531;42.570;23.676;2022-11-20T12:03:59;13.20;;;4.18;;
10957;SDS011;5531;42.570;23.676;2022-11-20T12:06:34;7.82;;;3.40;;
10957;SDS011;5531;42.570;23.676;2022-11-20T12:09:10;6.15;;;3.25;;
10957;SDS011;5531;42.570;23.676;2022-11-20T12:11:43;6.30;;;3.47;;
10957;SDS011;5531;42.570;23.676;2022-11-20T12:14:19;6.18;;;3.45;;
10957;SDS011;5531;42.570;23.676;2022-11-20T12:16:54;6.10;;;3.60;;
10957;SDS011;5531;42.570;23.676;2022-11-20T12:19:23;7.05;;;3.65;;
10957;SDS011;5531;42.570;23.676;2022-11-20T12:21:56;4.78;;;3.10;;
10957;SDS011;5531;42.570;23.676;2022-11-20T12:24:42;3.58;;;1.90;;
10957;SDS011;5531;42.570;23.676;2022-11-20T12:30:20;3.72;;;1.67;;
10957;SDS011;5531;42.570;23.676;2022-11-20T12:32:57;5.55;;;2.20;;
10957;SDS011;5531;42.570;23.676;2022-11-20T12:35:46;4.10;;;1.52;;
10957;SDS011;5531;42.570;23.676;2022-11-20T12:41:30;3.75;;;1.95;;
10957;SDS011;5531;42.570;23.676;2022-11-20T12:44:35;8.25;;;5.30;;
10957;SDS011;5531;42.570;23.676;2022-11-20T12:47:33;14.00;;;10.18;;
10957;SDS011;5531;42.570;23.676;2022-11-20T12:50:19;7.80;;;4.72;;
10957;SDS011;5531;42.570;23.676;2022-11-20T12:52:56;2.97;;;2.00;;
10957;SDS011;5531;42.570;23.676;2022-11-20T12:55:36;3.67;;;1.30;;
10957;SDS011;5531;42.570;23.676;2022-11-20T12:58:20;3.78;;;1.90;;
10957;SDS011;5531;42.570;23.676;2022-11-20T13:00:56;3.17;;;1.50;;
10957;SDS011;5531;42.570;23.676;2022-11-20T13:03:37;2.97;;;1.80;;
10957;SDS011;5531;42.570;23.676;2022-11-20T13:06:13;3.13;;;1.58;;
10957;SDS011;5531;42.570;23.676;2022-11-20T13:08:47;3.60;;;1.55;;
10957;SDS011;5531;42.570;23.676;2022-11-20T13:11:23;2.13;;;1.60;;
10957;SDS011;5531;42.570;23.676;2022-11-20T13:14:11;2.92;;;1.75;;
10957;SDS011;5531;42.570;23.676;2022-11-20T13:16:52;3.40;;;1.63;;
10957;SDS011;5531;42.570;23.676;2022-11-20T13:19:26;2.03;;;1.30;;
10957;SDS011;5531;42.570;23.676;2022-11-20T13:21:55;2.83;;;1.63;;
10957;SDS011;5531;42.570;23.676;2022-11-20T13:24:25;3.03;;;1.38;;
10957;SDS011;5531;42.570;23.676;2022-11-20T13:27:03;2.10;;;1.58;;
10957;SDS011;5531;42.570;23.676;2022-11-20T13:29:37;2.67;;;1.92;;
10957;SDS011;5531;42.570;23.676;2022-11-20T13:32:13;3.78;;;1.90;;
10957;SDS011;5531;42.570;23.676;2022-11-20T13:34:53;4.00;;;1.70;;
10957;SDS011;5531;42.570;23.676;2022-11-20T13:37:24;6.47;;;3.33;;
10957;SDS011;5531;42.570;23.676;2022-11-20T13:40:04;4.00;;;2.40;;
10957;SDS011;5531;42.570;23.676;2022-11-20T13:42:43;4.75;;;1.90;;
10957;SDS011;5531;42.570;23.676;2022-11-20T13:45:24;4.57;;;2.00;;
10957;SDS011;5531;42.570;23.676;2022-11-20T13:47:54;3.38;;;1.85;;
10957;SDS011;5531;42.570;23.676;2022-11-20T13:50:31;3.08;;;1.80;;
10957;SDS011;5531;42.570;23.676;2022-11-20T13:53:12;4.65;;;1.83;;
10957;SDS011;5531;42.570;23.676;2022-11-20T13:55:58;4.88;;;2.75;;
10957;SDS011;5531;42.570;23.676;2022-11-20T13:58:32;5.53;;;2.80;;
10957;SDS011;5531;42.570;23.676;2022-11-20T14:01:17;4.80;;;3.70;;
10957;SDS011;5531;42.570;23.676;2022-11-20T14:03:49;7.18;;;6.30;;
10957;SDS011;5531;42.570;23.676;2022-11-20T14:06:23;6.72;;;6.00;;
10957;SDS011;5531;42.570;23.676;2022-11-20T14:08:56;8.20;;;3.47;;
10957;SDS011;5531;42.570;23.676;2022-11-20T14:11:27;4.30;;;3.30;;
10957;SDS011;5531;42.570;23.676;2022-11-20T14:13:58;4.22;;;3.50;;
10957;SDS011;5531;42.570;23.676;2022-11-20T14:16:31;7.35;;;4.75;;
10957;SDS011;5531;42.570;23.676;2022-11-20T14:21:54;54.35;;;5.47;;
10957;SDS011;5531;42.570;23.676;2022-11-20T14:24:36;35.72;;;5.45;;
10957;SDS011;5531;42.570;23.676;2022-11-20T14:27:09;19.75;;;5.00;;
10957;SDS011;5531;42.570;23.676;2022-11-20T14:29:45;5.65;;;4.07;;
10957;SDS011;5531;42.570;23.676;2022-11-20T14:32:19;5.25;;;3.55;;
10957;SDS011;5531;42.570;23.676;2022-11-20T14:34:52;5.95;;;3.42;;
10957;SDS011;5531;42.570;23.676;2022-11-20T14:37:23;3.90;;;3.10;;
10957;SDS011;5531;42.570;23.676;2022-11-20T14:39:55;5.47;;;2.72;;
10957;SDS011;5531;42.570;23.676;2022-11-20T14:42:26;4.80;;;2.63;;
10957;SDS011;5531;42.570;23.676;2022-11-20T14:44:56;3.97;;;2.50;;
10957;SDS011;5531;42.570;23.676;2022-11-20T14:47:29;4.90;;;2.60;;
10957;SDS011;5531;42.570;23.676;2022-11-20T14:49:59;4.60;;;2.90;;
10957;SDS011;5531;42.570;23.676;2022-11-20T14:52:29;4.05;;;2.70;;
10957;SDS011;5531;42.570;23.676;2022-11-20T14:54:58;6.20;;;3.00;;
10957;SDS011;5531;42.570;23.676;2022-11-20T14:57:28;4.43;;;3.28;;
10957;SDS011;5531;42.570;23.676;2022-11-20T15:00:06;3.65;;;2.88;;
10957;SDS011;5531;42.570;23.676;2022-11-20T15:02:50;5.22;;;3.13;;
10957;SDS011;5531;42.570;23.676;2022-11-20T15:05:20;7.25;;;4.30;;
10957;SDS011;5531;42.570;23.676;2022-11-20T15:08:03;5.75;;;5.07;;
10957;SDS011;5531;42.570;23.676;2022-11-20T15:10:34;29.65;;;6.50;;
10957;SDS011;5531;42.570;23.676;2022-11-20T15:13:04;7.22;;;4.60;;
10957;SDS011;5531;42.570;23.676;2022-11-20T15:15:41;7.65;;;5.00;;
10957;SDS011;5531;42.570;23.676;2022-11-20T15:18:18;5.80;;;4.45;;
10957;SDS011;5531;42.570;23.676;2022-11-20T15:20:49;5.28;;;3.47;;
10957;SDS011;5531;42.570;23.676;2022-11-20T15:23:19;5.28;;;3.50;;
10957;SDS011;5531;42.570;23.676;2022-11-20T15:25:48;5.18;;;4.22;;
10957;SDS011;5531;42.570;23.676;2022-11-20T15:28:18;11.18;;;6.60;;
10957;SDS011;5531;42.570;23.676;2022-11-20T15:30:49;12.00;;;10.70;;
10957;SDS011;5531;42.570;23.676;2022-11-20T15:33:21;16.90;;;13.30;;